createdAt,value
2023-02-17T00:00:58.538Z,10.50
2023-02-17T00:04:00.394Z,11.53
2023-02-17T00:07:02.090Z,10.50
2023-02-17T00:10:03.962Z,8.63
2023-02-17T00:13:05.804Z,9.50
2023-02-17T00:16:11.699Z,8.53
2023-02-17T00:19:25.956Z,7.93
2023-02-17T00:22:27.868Z,7.97
2023-02-17T00:25:29.504Z,8.30
2023-02-17T00:28:31.186Z,9.23
2023-02-17T00:31:32.862Z,12.37
2023-02-17T00:34:34.535Z,10.43
2023-02-17T00:37:36.237Z,9.97
2023-02-17T00:40:38.978Z,11.37
2023-02-17T00:43:40.734Z,9.37
2023-02-17T00:46:42.389Z,7.20
2023-02-17T00:49:44.056Z,10.57
2023-02-17T00:52:45.703Z,8.30
2023-02-17T00:55:47.371Z,10.07
2023-02-17T00:58:49.040Z,8.13
2023-02-17T01:01:51.603Z,10.97
2023-02-17T01:04:53.573Z,9.53
2023-02-17T01:07:55.901Z,7.83
2023-02-17T01:10:57.469Z,6.67
2023-02-17T01:13:59.739Z,6.13
2023-02-17T01:17:01.527Z,7.37
2023-02-17T01:20:04.232Z,6.90
2023-02-17T01:23:06.069Z,7.23
2023-02-17T01:26:07.851Z,8.37
2023-02-17T01:29:09.866Z,7.90
2023-02-17T01:32:11.559Z,7.70
2023-02-17T01:35:13.189Z,8.30
2023-02-17T01:38:14.808Z,8.60
2023-02-17T01:41:17.715Z,7.77
2023-02-17T01:44:21.911Z,9.60
2023-02-17T01:47:26.268Z,7.40
2023-02-17T01:50:33.037Z,8.43
2023-02-17T01:53:46.148Z,6.97
2023-02-17T01:56:48.717Z,6.80
2023-02-17T01:59:50.732Z,6.53
2023-02-17T02:02:52.653Z,7.80
2023-02-17T02:05:55.074Z,4.53
2023-02-17T02:09:02.921Z,6.33
2023-02-17T02:12:16.383Z,8.43
2023-02-17T02:15:21.556Z,6.83
2023-02-17T02:18:31.833Z,6.50
2023-02-17T02:21:52.768Z,7.60
2023-02-17T02:25:03.771Z,6.03
2023-02-17T02:28:14.556Z,11.20
2023-02-17T02:31:36.916Z,11.80
2023-02-17T02:34:43.114Z,6.57
2023-02-17T02:37:47.713Z,11.17
2023-02-17T02:40:52.464Z,6.43
2023-02-17T02:43:54.176Z,8.47
2023-02-17T02:46:56.764Z,7.93
2023-02-17T02:49:58.557Z,5.40
2023-02-17T02:53:09.486Z,7.97
2023-02-17T02:56:21.098Z,7.47
2023-02-17T02:59:26.092Z,10.07
2023-02-17T03:02:44.674Z,9.33
2023-02-17T03:06:06.384Z,11.90
2023-02-17T03:09:13.375Z,12.03
2023-02-17T03:12:15.171Z,12.23
2023-02-17T03:15:23.230Z,9.13
2023-02-17T03:18:24.920Z,5.27
2023-02-17T03:21:29.699Z,7.67
2023-02-17T03:24:31.327Z,7.77
2023-02-17T03:27:32.948Z,7.73
2023-02-17T03:30:34.957Z,7.80
2023-02-17T03:33:36.633Z,8.13
2023-02-17T03:36:38.278Z,7.77
2023-02-17T03:39:39.841Z,7.57
2023-02-17T03:42:41.491Z,8.73
2023-02-17T03:45:43.123Z,7.43
2023-02-17T03:48:44.979Z,9.83
2023-02-17T03:51:46.550Z,8.60
2023-02-17T03:54:48.222Z,7.90
2023-02-17T03:57:49.902Z,10.70
2023-02-17T04:00:51.493Z,13.47
2023-02-17T04:03:53.086Z,8.77
2023-02-17T04:06:54.760Z,9.87
2023-02-17T04:09:56.498Z,9.23
2023-02-17T04:12:58.089Z,9.67
2023-02-17T04:16:01.489Z,9.07
2023-02-17T04:19:03.263Z,9.83
2023-02-17T04:22:08.809Z,12.00
2023-02-17T04:25:10.477Z,10.50
2023-02-17T04:28:12.795Z,8.87
2023-02-17T04:31:14.704Z,8.80
2023-02-17T04:34:16.418Z,9.17
2023-02-17T04:37:18.061Z,11.33
2023-02-17T04:40:19.933Z,10.70
2023-02-17T04:43:22.087Z,12.43
2023-02-17T04:46:23.656Z,11.23
2023-02-17T04:49:25.301Z,11.00
2023-02-17T04:52:26.964Z,10.23
2023-02-17T04:55:29.763Z,10.33
2023-02-17T04:58:31.468Z,11.10
2023-02-17T05:01:33.076Z,10.13
2023-02-17T05:04:34.945Z,11.50
2023-02-17T05:07:36.527Z,7.43
2023-02-17T05:10:38.187Z,9.57
2023-02-17T05:13:39.943Z,11.43
2023-02-17T05:16:41.639Z,16.37
2023-02-17T05:19:43.341Z,14.23
2023-02-17T05:22:44.974Z,18.30
2023-02-17T05:25:46.678Z,18.40
2023-02-17T05:28:48.431Z,17.83
2023-02-17T05:31:50.099Z,17.43
2023-02-17T05:34:51.794Z,14.17
2023-02-17T05:37:53.392Z,6.97
2023-02-17T05:40:55.039Z,9.47
2023-02-17T05:43:56.712Z,5.87
2023-02-17T05:46:58.339Z,7.43
2023-02-17T05:49:59.966Z,8.37
2023-02-17T05:53:01.633Z,7.20
2023-02-17T05:56:03.418Z,6.40
2023-02-17T05:59:05.068Z,7.10
2023-02-17T06:02:07.908Z,14.20
2023-02-17T06:05:09.781Z,13.97
2023-02-17T06:08:11.443Z,11.93
2023-02-17T06:11:13.082Z,11.10
2023-02-17T06:14:14.898Z,8.50
2023-02-17T06:17:16.472Z,11.73
2023-02-17T06:20:18.210Z,13.43
2023-02-17T06:23:19.803Z,13.93
2023-02-17T06:26:21.857Z,18.07
2023-02-17T06:29:23.503Z,9.40
2023-02-17T06:32:25.339Z,18.50
2023-02-17T06:35:27.033Z,22.80
2023-02-17T06:38:28.746Z,26.20
2023-02-17T06:41:30.389Z,34.57
2023-02-17T06:44:31.995Z,27.30
2023-02-17T06:47:34.101Z,54.23
2023-02-17T06:50:35.924Z,42.30
2023-02-17T06:53:37.626Z,18.13
2023-02-17T06:56:39.274Z,21.80
2023-02-17T06:59:40.884Z,27.17
2023-02-17T07:02:42.664Z,23.20
2023-02-17T07:05:44.484Z,19.20
2023-02-17T07:08:46.164Z,16.13
2023-02-17T07:11:48.364Z,16.93
2023-02-17T07:14:50.082Z,16.57
2023-02-17T07:17:51.878Z,15.87
2023-02-17T07:20:53.583Z,22.87
2023-02-17T07:23:55.327Z,22.30
2023-02-17T07:26:56.962Z,23.33
2023-02-17T07:29:58.806Z,29.10
2023-02-17T07:33:00.422Z,34.43
2023-02-17T07:36:12.435Z,31.80
2023-02-17T07:39:14.119Z,28.97
2023-02-17T07:42:15.927Z,26.33
2023-02-17T07:45:17.646Z,23.63
2023-02-17T07:48:19.295Z,23.57
2023-02-17T07:51:21.691Z,23.47
2023-02-17T07:54:23.291Z,62.50
2023-02-17T07:57:25.074Z,80.53
2023-02-17T08:00:26.786Z,48.60
2023-02-17T08:03:28.457Z,48.90
2023-02-17T08:06:30.098Z,73.10
2023-02-17T08:10:10.109Z,53.30
2023-02-17T08:13:20.687Z,30.33
2023-02-17T08:16:22.408Z,59.67
2023-02-17T08:19:24.162Z,56.13
2023-02-17T08:22:25.801Z,59.80
2023-02-17T08:25:27.451Z,74.80
2023-02-17T08:28:29.094Z,94.03
2023-02-17T08:31:32.518Z,172.53
2023-02-17T08:34:34.239Z,77.07
2023-02-17T08:37:35.947Z,22.93
2023-02-17T08:40:37.568Z,9.40
2023-02-17T08:43:39.329Z,15.93
2023-02-17T08:46:41.497Z,13.83
2023-02-17T08:49:43.281Z,11.00
2023-02-17T08:52:45.012Z,11.90
2023-02-17T08:55:49.504Z,16.00
2023-02-17T08:58:51.698Z,17.37
2023-02-17T09:01:53.410Z,19.07
2023-02-17T09:04:55.210Z,13.80
2023-02-17T09:07:57.012Z,11.07
2023-02-17T09:10:58.771Z,6.30
2023-02-17T09:14:00.359Z,7.83
2023-02-17T09:17:02.012Z,8.90
2023-02-17T09:20:05.067Z,7.80
2023-02-17T09:23:11.002Z,7.60
2023-02-17T09:26:13.697Z,9.17
2023-02-17T09:29:15.383Z,8.90
2023-02-17T09:32:17.118Z,7.23
2023-02-17T09:35:19.314Z,8.20
2023-02-17T09:38:21.017Z,7.63
2023-02-17T09:41:34.932Z,9.03
2023-02-17T09:44:42.814Z,9.40
2023-02-17T09:47:46.385Z,13.47
2023-02-17T09:51:02.689Z,7.63
2023-02-17T09:54:07.505Z,7.83
2023-02-17T09:57:12.917Z,6.13
2023-02-17T10:00:17.080Z,9.00
2023-02-17T10:03:24.882Z,6.53
2023-02-17T10:06:26.581Z,7.60
2023-02-17T10:09:28.257Z,7.17
2023-02-17T10:12:37.438Z,7.47
2023-02-17T10:15:40.688Z,6.83
2023-02-17T10:18:48.775Z,8.23
2023-02-17T10:22:11.405Z,5.73
2023-02-17T10:25:22.264Z,7.07
2023-02-17T10:28:37.379Z,6.47
2023-02-17T10:31:41.981Z,8.03
2023-02-17T10:34:51.145Z,8.90
2023-02-17T10:38:03.435Z,7.63
2023-02-17T10:41:06.695Z,7.03
2023-02-17T10:44:11.926Z,6.60
2023-02-17T10:47:15.417Z,7.63
2023-02-17T10:50:21.620Z,4.67
2023-02-17T10:53:25.934Z,34.97
2023-02-17T10:56:32.630Z,12.43
2023-02-17T10:59:37.826Z,6.97
2023-02-17T11:02:44.302Z,4.43
2023-02-17T11:05:52.303Z,6.20
2023-02-17T11:09:05.137Z,9.00
2023-02-17T11:12:12.291Z,4.57
2023-02-17T11:15:18.745Z,6.63
2023-02-17T11:18:21.719Z,6.27
2023-02-17T11:21:23.698Z,5.37
2023-02-17T11:24:26.026Z,4.23
2023-02-17T11:27:27.699Z,5.33
2023-02-17T11:30:30.357Z,5.00
2023-02-17T11:33:33.694Z,5.50
2023-02-17T11:36:35.329Z,4.90
2023-02-17T11:39:40.991Z,3.40
2023-02-17T11:42:42.681Z,3.73
2023-02-17T11:45:48.927Z,4.27
2023-02-17T11:48:50.553Z,3.67
2023-02-17T11:52:07.142Z,6.37
2023-02-17T11:55:24.142Z,4.07
2023-02-17T11:58:31.831Z,4.70
2023-02-17T12:01:45.734Z,6.47
2023-02-17T12:05:06.003Z,4.10
2023-02-17T12:08:22.993Z,3.37
2023-02-17T12:11:24.671Z,3.23
2023-02-17T12:14:40.822Z,4.17
2023-02-17T12:17:42.978Z,3.40
2023-02-17T12:21:03.186Z,4.17
2023-02-17T12:24:19.406Z,3.90
2023-02-17T12:27:27.059Z,3.47
2023-02-17T12:30:47.546Z,3.30
2023-02-17T12:33:49.271Z,4.23
2023-02-17T12:36:51.407Z,4.60
2023-02-17T12:40:02.113Z,4.17
2023-02-17T12:43:25.569Z,5.07
2023-02-17T12:46:41.205Z,3.60
2023-02-17T12:49:42.824Z,4.57
2023-02-17T12:52:46.298Z,4.40
2023-02-17T12:55:52.221Z,4.80
2023-02-17T12:59:10.473Z,3.70
2023-02-17T13:02:17.006Z,4.00
2023-02-17T13:05:22.254Z,4.40
2023-02-17T13:08:27.545Z,4.90
2023-02-17T13:11:34.053Z,4.50
2023-02-17T13:14:40.159Z,4.77
2023-02-17T13:17:52.963Z,4.20
2023-02-17T13:20:57.359Z,5.00
2023-02-17T13:24:16.563Z,5.50
2023-02-17T13:27:31.378Z,4.87
2023-02-17T13:30:41.953Z,5.60
2023-02-17T13:33:48.554Z,5.90
2023-02-17T13:36:50.535Z,4.53
2023-02-17T13:39:52.176Z,5.33
2023-02-17T13:42:54.832Z,6.40
2023-02-17T13:46:00.916Z,11.43
2023-02-17T13:49:04.446Z,9.07
2023-02-17T13:52:10.609Z,24.77
2023-02-17T13:55:18.884Z,10.23
2023-02-17T13:58:31.312Z,6.53
2023-02-17T14:01:36.289Z,8.13
2023-02-17T14:04:38.289Z,7.77
2023-02-17T14:07:39.904Z,8.17
2023-02-17T14:10:41.539Z,10.67
2023-02-17T14:13:45.578Z,12.90
2023-02-17T14:16:56.880Z,10.57
2023-02-17T14:19:58.632Z,8.60
2023-02-17T14:23:05.216Z,7.20
2023-02-17T14:26:14.914Z,6.53
2023-02-17T14:29:16.770Z,7.03
2023-02-17T14:32:27.574Z,7.07
2023-02-17T14:35:29.268Z,7.43
2023-02-17T14:38:32.333Z,6.50
2023-02-17T14:41:34.007Z,7.17
2023-02-17T14:44:35.680Z,7.97
2023-02-17T14:47:37.229Z,7.27
2023-02-17T14:50:45.022Z,7.90
2023-02-17T14:53:47.092Z,9.00
2023-02-17T14:56:54.612Z,9.93
2023-02-17T14:59:57.843Z,11.43
2023-02-17T15:02:59.496Z,7.07
2023-02-17T15:06:01.317Z,7.57
2023-02-17T15:09:02.984Z,9.13
2023-02-17T15:12:09.837Z,8.63
2023-02-17T15:15:15.408Z,7.77
2023-02-17T15:18:18.317Z,7.47
2023-02-17T15:21:23.028Z,9.03
2023-02-17T15:24:29.842Z,8.30
2023-02-17T15:27:32.867Z,10.50
2023-02-17T15:30:35.643Z,13.23
2023-02-17T15:33:37.296Z,10.60
2023-02-17T15:36:38.861Z,14.57
2023-02-17T15:39:40.580Z,17.27
2023-02-17T15:42:42.850Z,20.23
2023-02-17T15:45:44.478Z,17.53
2023-02-17T15:48:48.735Z,16.43
2023-02-17T15:51:50.444Z,19.33
2023-02-17T15:54:53.902Z,17.93
2023-02-17T15:58:01.981Z,20.53
2023-02-17T16:01:04.242Z,23.63
2023-02-17T16:04:06.746Z,23.50
2023-02-17T16:07:08.350Z,23.17
2023-02-17T16:10:11.312Z,23.17
2023-02-17T16:13:15.706Z,21.30
2023-02-17T16:16:18.893Z,22.67
2023-02-17T16:19:20.522Z,19.20
2023-02-17T16:22:22.159Z,42.13
2023-02-17T16:25:23.841Z,37.73
2023-02-17T16:28:25.472Z,47.57
2023-02-17T16:31:27.293Z,68.80
2023-02-17T16:34:32.404Z,71.77
2023-02-17T16:37:34.153Z,55.57
2023-02-17T16:40:36.990Z,45.87
2023-02-17T16:43:38.624Z,51.97
2023-02-17T16:46:44.923Z,55.67
2023-02-17T16:49:47.361Z,51.53
2023-02-17T16:52:48.951Z,43.00
2023-02-17T16:55:52.017Z,42.60
2023-02-17T16:58:53.706Z,43.20
2023-02-17T17:01:55.320Z,39.67
2023-02-17T17:04:56.891Z,42.23
2023-02-17T17:07:58.596Z,42.20
2023-02-17T17:11:00.262Z,41.10
2023-02-17T17:14:01.865Z,29.10
2023-02-17T17:17:03.477Z,30.87
2023-02-17T17:20:05.375Z,22.10
2023-02-17T17:23:08.517Z,30.73
2023-02-17T17:26:14.602Z,29.93
2023-02-17T17:29:17.332Z,32.10
2023-02-17T17:32:19.119Z,24.37
2023-02-17T17:35:20.830Z,17.13
2023-02-17T17:38:22.536Z,22.00
2023-02-17T17:41:27.922Z,25.30
2023-02-17T17:44:29.673Z,20.83
2023-02-17T17:47:32.060Z,20.47
2023-02-17T17:50:33.712Z,21.40
2023-02-17T17:53:35.399Z,21.20
2023-02-17T17:56:39.296Z,20.07
2023-02-17T17:59:40.954Z,20.80
2023-02-17T18:02:42.747Z,19.80
2023-02-17T18:05:47.750Z,17.03
2023-02-17T18:08:50.388Z,18.07
2023-02-17T18:11:52.885Z,21.20
2023-02-17T18:14:54.746Z,17.13
2023-02-17T18:17:56.583Z,23.17
2023-02-17T18:20:58.172Z,20.63
2023-02-17T18:23:59.773Z,14.10
2023-02-17T18:27:01.352Z,16.10
2023-02-17T18:30:03.127Z,15.67
2023-02-17T18:33:04.916Z,16.43
2023-02-17T18:36:10.927Z,19.20
2023-02-17T18:39:12.546Z,20.27
2023-02-17T18:42:14.386Z,17.73
2023-02-17T18:45:16.832Z,19.40
2023-02-17T18:48:18.592Z,20.60
2023-02-17T18:51:23.290Z,28.07
2023-02-17T18:54:25.002Z,22.40
2023-02-17T18:57:26.578Z,26.60
2023-02-17T19:00:28.410Z,21.47
2023-02-17T19:03:30.091Z,18.50
2023-02-17T19:06:34.537Z,21.27
2023-02-17T19:09:37.751Z,17.23
2023-02-17T19:12:39.372Z,18.87
2023-02-17T19:15:40.980Z,23.77
2023-02-17T19:18:43.108Z,20.77
2023-02-17T19:21:44.760Z,25.17
2023-02-17T19:24:49.988Z,21.73
2023-02-17T19:27:51.554Z,15.90
2023-02-17T19:30:57.388Z,22.53
2023-02-17T19:33:58.972Z,18.00
2023-02-17T19:37:00.673Z,17.00
2023-02-17T19:40:02.962Z,17.60
2023-02-17T19:43:04.539Z,24.43
2023-02-17T19:46:06.729Z,25.17
2023-02-17T19:49:08.659Z,22.03
2023-02-17T19:52:10.728Z,28.93
2023-02-17T19:55:12.666Z,27.93
2023-02-17T19:58:14.241Z,25.57
2023-02-17T20:01:17.381Z,27.17
2023-02-17T20:04:20.252Z,18.50
2023-02-17T20:07:21.926Z,13.33
2023-02-17T20:10:23.661Z,15.03
2023-02-17T20:13:27.172Z,18.40
2023-02-17T20:16:30.584Z,16.43
2023-02-17T20:19:32.237Z,26.77
2023-02-17T20:22:33.829Z,21.27
2023-02-17T20:25:39.549Z,20.37
2023-02-17T20:28:41.182Z,20.90
2023-02-17T20:31:42.891Z,29.00
2023-02-17T20:34:44.574Z,25.10
2023-02-17T20:37:46.229Z,32.77
2023-02-17T20:40:47.903Z,34.97
2023-02-17T20:43:49.908Z,26.60
2023-02-17T20:46:51.971Z,31.53
2023-02-17T20:49:53.679Z,31.33
2023-02-17T20:52:55.262Z,34.30
2023-02-17T20:55:57.119Z,31.33
2023-02-17T20:58:58.722Z,29.83
2023-02-17T21:02:00.400Z,28.03
2023-02-17T21:05:02.042Z,26.27
2023-02-17T21:08:03.804Z,24.07
2023-02-17T21:11:05.488Z,20.13
2023-02-17T21:14:07.201Z,17.43
2023-02-17T21:17:09.212Z,14.63
2023-02-17T21:20:16.908Z,12.03
2023-02-17T21:23:18.945Z,15.07
2023-02-17T21:26:20.925Z,14.80
2023-02-17T21:29:22.845Z,16.87
2023-02-17T21:32:24.984Z,17.97
2023-02-17T21:35:26.581Z,16.20
2023-02-17T21:38:28.206Z,15.27
2023-02-17T21:41:32.113Z,14.73
2023-02-17T21:44:51.923Z,14.53
2023-02-17T21:47:53.563Z,13.53
2023-02-17T21:51:03.105Z,20.53
2023-02-17T21:54:05.389Z,20.80
2023-02-17T21:57:07.008Z,17.90
2023-02-17T22:00:09.386Z,33.67
2023-02-17T22:03:13.881Z,24.00
2023-02-17T22:06:15.596Z,19.93
2023-02-17T22:09:18.126Z,19.50
2023-02-17T22:12:19.843Z,25.50
2023-02-17T22:15:21.534Z,24.57
2023-02-17T22:18:23.098Z,20.77
2023-02-17T22:21:24.805Z,24.87
2023-02-17T22:24:27.913Z,28.47
2023-02-17T22:27:29.603Z,26.83
2023-02-17T22:30:31.285Z,22.07
2023-02-17T22:33:33.538Z,23.43
2023-02-17T22:36:35.903Z,23.10
2023-02-17T22:39:37.515Z,23.60
2023-02-17T22:42:39.135Z,21.33
2023-02-17T22:45:41.433Z,26.13
2023-02-17T22:48:43.812Z,18.13
2023-02-17T22:51:45.415Z,17.97
2023-02-17T22:54:46.964Z,13.50
2023-02-17T22:57:48.574Z,16.87
2023-02-17T23:00:50.264Z,15.57
2023-02-17T23:03:54.383Z,22.70
2023-02-17T23:06:56.604Z,18.70
2023-02-17T23:09:58.219Z,24.60
2023-02-17T23:12:59.945Z,21.37
2023-02-17T23:16:01.738Z,19.37
2023-02-17T23:19:10.383Z,16.00
2023-02-17T23:22:15.944Z,15.93
2023-02-17T23:25:17.608Z,18.37
2023-02-17T23:28:20.535Z,15.70
2023-02-17T23:31:22.272Z,14.50
2023-02-17T23:34:24.205Z,16.07
2023-02-17T23:37:25.998Z,13.27
2023-02-17T23:40:27.709Z,17.17
2023-02-17T23:43:29.393Z,18.07
2023-02-17T23:46:31.044Z,21.50
2023-02-17T23:49:32.680Z,17.43
2023-02-17T23:52:34.466Z,18.10
2023-02-17T23:55:36.156Z,18.43
2023-02-17T23:58:37.833Z,20.07
